Time;durP1;ratioP1;P1;durP2;ratioP2;P2;SDS_P1;SDS_P2;PMS_P1;PMS_P2;Temp;Humidity;BMP_temperature;BMP_pressure;BME280_temperature;BME280_humidity;BME280_pressure;Samples;Min_cycle;Max_cycle;Signal;HPM_P1;HPM_P2
2021/12/29 00:01:50;;;;;;;10.25;5.82;;;5.00;99.90;;;;;;5041894;28;20068;-69
2021/12/29 00:04:16;;;;;;;10.70;4.68;;;5.00;99.90;;;;;;5041568;28;20029;-69
2021/12/29 00:06:42;;;;;;;8.68;4.68;;;5.10;99.90;;;;;;5041510;28;20024;-69
2021/12/29 00:09:08;;;;;;;;;;;5.10;99.90;;;;;;5041376;28;20029;-69
2021/12/29 00:11:38;;;;;;;11.23;5.90;;;5.10;99.90;;;;;;5041380;28;19912;-69
2021/12/29 00:14:03;;;;;;;10.80;5.13;;;5.10;99.90;;;;;;5041471;28;20151;-69
2021/12/29 00:16:34;;;;;;;12.75;5.15;;;5.20;99.90;;;;;;5040410;28;20482;-69
2021/12/29 00:19:00;;;;;;;12.52;5.22;;;5.20;99.90;;;;;;5041235;28;20032;-69
2021/12/29 00:21:26;;;;;;;15.25;6.00;;;5.20;99.90;;;;;;5042062;28;20037;-69
2021/12/29 00:23:52;;;;;;;15.73;5.10;;;5.20;99.90;;;;;;5041680;28;20057;-68
2021/12/29 00:26:17;;;;;;;11.02;5.13;;;5.30;99.90;;;;;;5041597;28;20056;-68
2021/12/29 00:28:43;;;;;;;12.30;4.88;;;5.30;99.90;;;;;;5041799;28;20029;-69
2021/12/29 00:31:08;;;;;;;;;;;5.20;99.90;;;;;;5041841;28;20370;-69
2021/12/29 00:33:34;;;;;;;12.85;7.30;;;5.20;99.90;;;;;;5041444;28;19916;-68
2021/12/29 00:35:59;;;;;;;;;;;5.20;99.90;;;;;;5041788;28;20037;-71
2021/12/29 00:38:25;;;;;;;8.63;5.22;;;5.10;99.90;;;;;;5041211;28;19916;-71
2021/12/29 00:40:50;;;;;;;8.77;5.20;;;5.10;99.90;;;;;;5041329;28;20032;-71
2021/12/29 00:43:16;;;;;;;14.40;5.68;;;5.10;99.90;;;;;;5040934;28;20030;-71
2021/12/29 00:45:43;;;;;;;;;;;5.10;99.90;;;;;;5041568;28;20136;-71
2021/12/29 00:48:11;;;;;;;14.43;6.00;;;5.10;99.90;;;;;;5040983;28;19915;-71
2021/12/29 00:50:38;;;;;;;17.85;7.32;;;5.10;99.90;;;;;;5040857;28;20030;-71
2021/12/29 00:53:03;;;;;;;16.77;7.55;;;5.10;99.90;;;;;;5041021;28;20020;-71
2021/12/29 00:55:29;;;;;;;9.32;5.90;;;5.10;99.90;;;;;;5040449;28;20025;-71
2021/12/29 00:57:54;;;;;;;;;;;5.10;99.90;;;;;;5041232;28;20032;-71
2021/12/29 01:00:22;;;;;;;9.68;4.95;;;5.10;99.90;;;;;;5040161;28;20010;-71
2021/12/29 01:02:49;;;;;;;15.65;7.47;;;5.20;99.90;;;;;;5040357;28;20175;-71
2021/12/29 01:05:16;;;;;;;18.40;5.32;;;5.20;99.90;;;;;;5040113;28;20017;-71
2021/12/29 01:07:44;;;;;;;14.38;5.10;;;5.20;99.90;;;;;;5040155;28;20079;-71
2021/12/29 01:10:11;;;;;;;8.80;4.22;;;5.20;99.90;;;;;;5040279;28;20106;-71
2021/12/29 01:12:37;;;;;;;16.20;6.45;;;5.20;99.90;;;;;;5039644;28;20034;-71
2021/12/29 01:15:03;;;;;;;8.07;5.40;;;5.20;99.90;;;;;;5040252;28;20480;-71
2021/12/29 01:17:31;;;;;;;14.15;5.45;;;5.30;99.90;;;;;;5039808;28;20059;-71
2021/12/29 01:19:57;;;;;;;13.32;4.93;;;5.20;99.90;;;;;;5040447;28;20025;-71
2021/12/29 01:22:23;;;;;;;;;;;5.20;99.90;;;;;;5041048;28;20571;-71
2021/12/29 01:24:49;;;;;;;10.18;5.25;;;5.20;99.90;;;;;;5040856;28;19913;-71
2021/12/29 01:27:15;;;;;;;8.55;5.07;;;5.30;99.90;;;;;;5040207;28;20040;-71
2021/12/29 01:29:41;;;;;;;10.77;5.95;;;5.30;99.90;;;;;;5040779;28;20022;-71
2021/12/29 01:32:07;;;;;;;;;;;5.30;99.90;;;;;;5040688;28;20033;-71
2021/12/29 01:34:33;;;;;;;8.85;5.45;;;5.40;99.90;;;;;;5039911;28;19909;-72
2021/12/29 01:37:00;;;;;;;12.07;5.60;;;5.40;99.90;;;;;;5040055;28;20025;-71
2021/12/29 01:39:26;;;;;;;;;;;5.40;99.90;;;;;;5040664;28;20047;-71
2021/12/29 01:41:54;;;;;;;8.38;4.65;;;5.40;99.90;;;;;;5038847;28;19931;-71
2021/12/29 01:44:24;;;;;;;11.02;5.00;;;5.40;99.90;;;;;;5039523;28;20420;-71
2021/12/29 01:46:51;;;;;;;9.88;5.22;;;5.50;99.90;;;;;;5039940;28;20044;-71
2021/12/29 01:49:16;;;;;;;9.57;3.95;;;5.50;99.90;;;;;;5039295;28;20021;-71
2021/12/29 01:51:49;;;;;;;11.73;4.65;;;5.50;99.90;;;;;;5039672;28;20063;-71
2021/12/29 01:54:23;;;;;;;13.00;5.60;;;5.60;99.90;;;;;;5023080;28;20059;-71
2021/12/29 01:56:51;;;;;;;10.15;5.03;;;5.60;99.90;;;;;;5039701;28;20482;-71
2021/12/29 01:59:16;;;;;;;10.95;5.60;;;5.70;99.90;;;;;;5038890;28;20060;-71
2021/12/29 02:01:43;;;;;;;10.55;5.38;;;5.70;99.90;;;;;;5039125;28;20057;-71
2021/12/29 02:04:08;;;;;;;8.82;5.80;;;5.70;99.90;;;;;;5038835;28;20033;-71
2021/12/29 02:06:34;;;;;;;9.20;5.63;;;5.70;99.90;;;;;;5038927;28;20086;-71
2021/12/29 02:09:00;;;;;;;11.32;6.57;;;5.70;99.90;;;;;;5039342;28;20072;-71
2021/12/29 02:11:29;;;;;;;23.10;11.85;;;5.70;99.90;;;;;;5038710;28;20029;-71
2021/12/29 02:14:00;;;;;;;14.50;7.20;;;5.70;99.90;;;;;;5039898;28;20033;-71
2021/12/29 02:16:26;;;;;;;15.18;7.65;;;5.80;99.90;;;;;;5039793;28;20056;-71
2021/12/29 02:18:54;;;;;;;11.93;6.57;;;5.80;99.90;;;;;;5039844;28;20022;-71
2021/12/29 02:21:25;;;;;;;17.83;8.18;;;5.80;99.90;;;;;;5039701;28;20112;-71
2021/12/29 02:26:22;;;;;;;11.73;6.88;;;5.80;99.90;;;;;;5039228;28;20099;-71
2021/12/29 02:28:48;;;;;;;11.65;6.68;;;5.80;99.90;;;;;;5039207;28;20029;-71
2021/12/29 02:31:13;;;;;;;11.82;6.35;;;5.80;99.90;;;;;;5039519;28;20029;-71
2021/12/29 02:33:39;;;;;;;9.85;6.38;;;5.80;99.90;;;;;;5021316;28;20036;-71
2021/12/29 02:36:05;;;;;;;15.02;8.10;;;5.80;99.90;;;;;;5039134;28;20037;-71
2021/12/29 02:38:34;;;;;;;14.38;8.43;;;5.80;99.90;;;;;;5039017;28;20029;-71
2021/12/29 02:41:04;;;;;;;17.52;10.63;;;5.80;99.90;;;;;;5039111;28;20051;-71
2021/12/29 02:43:32;;;;;;;14.00;8.32;;;5.80;99.90;;;;;;5038651;28;20024;-71
2021/12/29 02:45:58;;;;;;;17.85;9.88;;;5.80;99.90;;;;;;5038635;28;20013;-71
2021/12/29 02:48:29;;;;;;;24.73;9.05;;;5.80;99.90;;;;;;5038610;28;20021;-71
2021/12/29 02:50:56;;;;;;;15.18;7.85;;;5.80;99.90;;;;;;5039156;28;20057;-70
2021/12/29 02:53:26;;;;;;;13.50;8.50;;;5.70;99.90;;;;;;5040482;28;20103;-71
2021/12/29 02:55:53;;;;;;;15.25;9.70;;;5.70;99.90;;;;;;5042912;28;20020;-71
2021/12/29 02:58:20;;;;;;;14.13;8.73;;;5.70;99.90;;;;;;5042585;28;20059;-71
2021/12/29 03:00:46;;;;;;;12.40;6.43;;;5.60;99.90;;;;;;5042847;28;20025;-71
2021/12/29 03:03:15;;;;;;;;;;;5.60;99.90;;;;;;5042659;28;20029;-71
2021/12/29 03:05:41;;;;;;;10.57;6.55;;;5.60;99.90;;;;;;5042381;28;20288;-71
2021/12/29 03:08:06;;;;;;;10.13;6.53;;;5.60;99.90;;;;;;5042533;28;20025;-71
2021/12/29 03:10:32;;;;;;;9.63;6.20;;;5.60;99.90;;;;;;5042500;28;20170;-71
2021/12/29 03:12:57;;;;;;;11.05;7.38;;;5.50;99.90;;;;;;5043387;28;20040;-71
2021/12/29 03:15:23;;;;;;;9.27;6.90;;;5.50;99.90;;;;;;5042932;28;20400;-69
2021/12/29 03:17:48;;;;;;;12.77;6.35;;;5.40;99.90;;;;;;5043320;28;20029;-68
2021/12/29 03:20:14;;;;;;;21.65;9.20;;;5.40;99.90;;;;;;5042860;28;20064;-69
2021/12/29 03:22:39;;;;;;;24.08;12.90;;;5.40;99.90;;;;;;5042869;28;20049;-68
2021/12/29 03:25:06;;;;;;;14.27;8.02;;;5.30;99.90;;;;;;5042679;28;20025;-71
2021/12/29 03:27:32;;;;;;;12.82;6.30;;;5.30;99.90;;;;;;5042778;28;20132;-71
2021/12/29 03:29:58;;;;;;;14.55;8.43;;;5.30;99.90;;;;;;5042359;28;20573;-71
2021/12/29 03:32:37;;;;;;;;;;;5.30;99.90;;;;;;5042764;28;20025;-71
2021/12/29 03:35:03;;;;;;;9.95;5.95;;;5.40;99.90;;;;;;5042491;28;19992;-71
2021/12/29 03:37:28;;;;;;;16.77;10.27;;;5.40;99.90;;;;;;5042050;28;20116;-71
2021/12/29 03:39:54;;;;;;;14.20;7.20;;;5.40;99.90;;;;;;5042313;28;20159;-71
2021/12/29 03:42:19;;;;;;;12.98;7.30;;;5.40;99.90;;;;;;5041851;28;20067;-71
2021/12/29 03:44:45;;;;;;;;;;;5.40;99.90;;;;;;5042852;28;20021;-71
2021/12/29 03:47:10;;;;;;;13.38;7.68;;;5.40;99.90;;;;;;5041897;28;20420;-71
2021/12/29 03:49:36;;;;;;;11.68;6.82;;;5.40;99.90;;;;;;5041697;28;20040;-71
2021/12/29 03:52:02;;;;;;;9.68;5.82;;;5.40;99.90;;;;;;5041513;28;20025;-71
2021/12/29 03:54:27;;;;;;;11.00;7.13;;;5.40;99.90;;;;;;5023844;28;20116;-69
2021/12/29 03:56:53;;;;;;;11.98;6.63;;;5.50;99.90;;;;;;5041754;28;20096;-71
2021/12/29 03:59:19;;;;;;;9.75;5.93;;;5.50;99.90;;;;;;5041365;28;20116;-71
2021/12/29 04:01:45;;;;;;;15.25;7.90;;;5.50;99.90;;;;;;5041692;28;20408;-71
2021/12/29 04:04:11;;;;;;;14.32;7.35;;;5.50;99.90;;;;;;5040238;28;20451;-71
2021/12/29 04:06:36;;;;;;;23.60;13.35;;;5.50;99.90;;;;;;5041618;28;20092;-71
2021/12/29 04:09:04;;;;;;;20.23;11.98;;;5.50;99.90;;;;;;5041829;28;20539;-71
2021/12/29 04:11:30;;;;;;;13.93;7.85;;;5.40;99.90;;;;;;5041857;28;20025;-70
2021/12/29 04:13:55;;;;;;;22.17;10.82;;;5.40;99.90;;;;;;5042116;28;20035;-71
2021/12/29 04:16:21;;;;;;;17.85;8.95;;;5.40;99.90;;;;;;5041765;28;20075;-71
2021/12/29 04:19:08;;;;;;;19.30;11.65;;;5.50;99.90;;;;;;5042075;28;20539;-71
2021/12/29 04:21:36;;;;;;;26.10;11.90;;;5.50;99.90;;;;;;5041481;28;20037;-71
2021/12/29 04:24:03;;;;;;;21.23;11.50;;;5.50;99.90;;;;;;5041872;28;20021;-71
2021/12/29 04:26:28;;;;;;;15.60;9.88;;;5.50;99.90;;;;;;5041407;28;20029;-71
2021/12/29 04:28:54;;;;;;;20.05;11.73;;;5.60;99.90;;;;;;5041243;28;20379;-71
2021/12/29 04:31:19;;;;;;;19.05;11.30;;;5.60;99.90;;;;;;5041263;28;20505;-71
2021/12/29 04:33:45;;;;;;;18.23;10.95;;;5.60;99.90;;;;;;5041557;28;20100;-71
2021/12/29 04:36:10;;;;;;;23.58;9.40;;;5.60;99.90;;;;;;5056342;22;20054;-70
2021/12/29 04:38:36;;;;;;;;;;;5.60;99.90;;;;;;5041797;28;20114;-71
2021/12/29 04:41:02;;;;;;;13.70;8.77;;;5.70;99.90;;;;;;5041674;28;19917;-70
2021/12/29 04:43:28;;;;;;;17.25;10.25;;;5.70;99.90;;;;;;5040980;28;20029;-71
2021/12/29 04:45:54;;;;;;;17.25;9.93;;;5.70;99.90;;;;;;5041500;28;20029;-70
2021/12/29 04:48:20;;;;;;;;;;;5.70;99.90;;;;;;5041274;28;20051;-71
2021/12/29 04:50:52;;;;;;;14.43;8.55;;;5.70;99.90;;;;;;5040856;28;19915;-70
2021/12/29 04:53:21;;;;;;;18.15;10.50;;;5.70;99.90;;;;;;5040402;28;20105;-70
2021/12/29 04:55:49;;;;;;;18.38;9.68;;;5.70;99.90;;;;;;5040237;28;20338;-70
2021/12/29 04:58:15;;;;;;;14.63;8.90;;;5.70;99.90;;;;;;5040452;28;20083;-70
2021/12/29 05:00:41;;;;;;;17.10;10.02;;;5.70;99.90;;;;;;5040143;28;20477;-70
2021/12/29 05:03:07;;;;;;;17.50;9.68;;;5.70;99.90;;;;;;5040593;28;20052;-70
2021/12/29 05:10:45;;;;;;;18.67;10.38;;;5.70;99.90;;;;;;5041945;28;20047;-71
2021/12/29 05:13:10;;;;;;;16.38;11.50;;;5.80;99.90;;;;;;5041100;28;20271;-71
2021/12/29 05:15:36;;;;;;;15.23;9.30;;;5.80;99.90;;;;;;5040740;28;20033;-70
2021/12/29 05:18:02;;;;;;;19.23;10.85;;;5.80;99.90;;;;;;5041109;28;20108;-70
2021/12/29 05:20:29;;;;;;;13.65;9.23;;;5.80;99.90;;;;;;5040445;28;20043;-71
2021/12/29 05:22:56;;;;;;;14.02;8.60;;;5.90;99.90;;;;;;5039239;28;20155;-70
2021/12/29 05:25:23;;;;;;;17.40;8.88;;;5.80;99.90;;;;;;5040093;28;20057;-70
2021/12/29 05:27:48;;;;;;;16.70;10.68;;;5.90;99.90;;;;;;5040471;28;20024;-71
2021/12/29 05:30:14;;;;;;;17.27;9.70;;;5.90;99.90;;;;;;5040608;28;20029;-71
2021/12/29 05:32:40;;;;;;;14.27;8.52;;;5.90;99.90;;;;;;5039902;28;20407;-71
2021/12/29 05:35:05;;;;;;;;;;;5.90;99.90;;;;;;5040898;28;20017;-70
2021/12/29 05:37:31;;;;;;;15.80;9.32;;;5.90;99.90;;;;;;5039815;28;20353;-71
2021/12/29 05:39:57;;;;;;;14.68;8.20;;;5.90;99.90;;;;;;5022503;28;20033;-70
2021/12/29 05:42:22;;;;;;;12.25;7.70;;;5.90;99.90;;;;;;5039777;28;20072;-70
2021/12/29 05:44:48;;;;;;;11.35;7.28;;;5.90;99.90;;;;;;5039896;28;20053;-70
2021/12/29 05:47:13;;;;;;;17.77;8.38;;;5.90;99.90;;;;;;5040062;28;20082;-70
2021/12/29 05:49:39;;;;;;;11.50;8.63;;;6.00;99.90;;;;;;5039517;28;20025;-70
2021/12/29 05:52:04;;;;;;;11.63;7.68;;;6.00;99.90;;;;;;5039504;28;20473;-70
2021/12/29 05:54:32;;;;;;;;;;;6.00;99.90;;;;;;5039677;28;20021;-70
2021/12/29 05:56:58;;;;;;;15.30;6.80;;;6.00;99.90;;;;;;5039703;28;19904;-70
2021/12/29 05:59:23;;;;;;;;;;;6.00;99.90;;;;;;5039505;28;20025;-71
2021/12/29 06:01:48;;;;;;;11.35;7.82;;;6.00;99.90;;;;;;5039235;28;19909;-70
2021/12/29 06:04:14;;;;;;;13.18;7.10;;;6.00;99.90;;;;;;5039655;28;20213;-70
2021/12/29 06:06:39;;;;;;;;;;;6.10;99.90;;;;;;5039304;28;20021;-70
2021/12/29 06:09:05;;;;;;;13.90;7.68;;;6.10;99.90;;;;;;5038928;28;20266;-70
2021/12/29 06:11:30;;;;;;;13.45;7.35;;;6.10;99.90;;;;;;5040058;28;20397;-70
2021/12/29 06:13:56;;;;;;;12.85;7.47;;;6.10;99.90;;;;;;5040023;28;20386;-71
2021/12/29 06:16:21;;;;;;;;;;;6.10;99.90;;;;;;5040446;28;20033;-71
2021/12/29 06:18:47;;;;;;;17.45;7.30;;;6.10;99.90;;;;;;5039760;28;20322;-71
2021/12/29 06:21:16;;;;;;;13.55;8.00;;;6.10;99.90;;;;;;5039885;28;20025;-71
2021/12/29 06:23:43;;;;;;;15.80;7.70;;;6.10;99.90;;;;;;5039456;28;20033;-70
2021/12/29 06:26:09;;;;;;;17.17;8.57;;;6.10;99.90;;;;;;5039103;28;20044;-70
2021/12/29 06:28:34;;;;;;;14.60;9.30;;;6.20;99.90;;;;;;5038809;28;20393;-71
2021/12/29 06:31:00;;;;;;;;;;;6.20;99.90;;;;;;5040046;28;20030;-71
2021/12/29 06:33:25;;;;;;;11.35;7.95;;;6.20;99.90;;;;;;5039625;28;20264;-71
2021/12/29 06:35:51;;;;;;;13.68;7.72;;;6.20;99.90;;;;;;5039104;28;20435;-71
2021/12/29 06:38:16;;;;;;;13.73;8.73;;;6.20;99.90;;;;;;5039239;28;20107;-70
2021/12/29 06:40:41;;;;;;;14.40;8.90;;;6.20;99.90;;;;;;5038959;28;20046;-71
2021/12/29 06:43:07;;;;;;;13.00;8.68;;;6.20;99.90;;;;;;5039270;28;20041;-70
2021/12/29 06:45:32;;;;;;;17.27;9.48;;;6.20;99.90;;;;;;5038742;28;20017;-70
2021/12/29 06:47:58;;;;;;;16.40;8.15;;;6.20;99.90;;;;;;5038820;28;20052;-71
2021/12/29 06:50:23;;;;;;;;;;;6.20;99.90;;;;;;5021408;28;20072;-70
2021/12/29 06:52:49;;;;;;;14.82;8.48;;;6.20;99.90;;;;;;5038908;28;20015;-70
2021/12/29 06:55:14;;;;;;;15.82;7.93;;;6.20;99.90;;;;;;5039125;28;20029;-71
2021/12/29 06:57:40;;;;;;;;;;;6.20;99.90;;;;;;5038616;28;20505;-70
2021/12/29 07:00:07;;;;;;;16.55;7.65;;;6.20;99.90;;;;;;5038806;28;19913;-70
2021/12/29 07:02:33;;;;;;;14.32;8.00;;;6.30;99.90;;;;;;5037834;28;20053;-71
2021/12/29 07:04:58;;;;;;;13.18;7.60;;;6.30;99.90;;;;;;5038879;28;20052;-70
2021/12/29 07:07:23;;;;;;;;;;;6.30;99.90;;;;;;5039206;28;20379;-71
2021/12/29 07:09:49;;;;;;;12.27;6.68;;;6.30;99.90;;;;;;5039583;28;19931;-71
2021/12/29 07:12:14;;;;;;;;;;;6.30;99.90;;;;;;5039867;28;20033;-71
2021/12/29 07:14:40;;;;;;;14.73;7.88;;;6.30;99.90;;;;;;5039084;28;19959;-70
2021/12/29 07:17:06;;;;;;;;;;;6.30;99.90;;;;;;5039414;28;20010;-70
2021/12/29 07:19:32;;;;;;;11.80;6.05;;;6.30;99.90;;;;;;5039055;28;19999;-70
2021/12/29 07:22:00;;;;;;;14.45;6.35;;;6.30;99.90;;;;;;5039185;28;20033;-70
2021/12/29 07:24:26;;;;;;;12.30;6.55;;;6.30;99.90;;;;;;5038946;28;20033;-70
2021/12/29 07:26:51;;;;;;;;;;;6.30;99.90;;;;;;5039126;28;20028;-70
2021/12/29 07:29:17;;;;;;;13.77;6.80;;;6.30;99.90;;;;;;5038867;28;20003;-70
2021/12/29 07:31:43;;;;;;;13.00;7.15;;;6.30;99.90;;;;;;5038342;28;20109;-70
2021/12/29 07:34:08;;;;;;;13.55;7.78;;;6.40;99.90;;;;;;5038827;28;20028;-71
2021/12/29 07:36:34;;;;;;;13.05;7.25;;;6.40;99.90;;;;;;5038176;28;20049;-70
2021/12/29 07:39:00;;;;;;;16.38;8.27;;;6.40;99.90;;;;;;5039043;28;20026;-70
2021/12/29 07:41:26;;;;;;;12.85;7.13;;;6.40;99.90;;;;;;5042035;28;20425;-71
2021/12/29 07:43:52;;;;;;;12.25;7.45;;;6.40;99.90;;;;;;5042179;28;20052;-71
2021/12/29 07:46:17;;;;;;;;;;;6.40;99.90;;;;;;5042360;28;20030;-70
2021/12/29 07:48:43;;;;;;;12.07;6.50;;;6.40;99.90;;;;;;5041459;28;19913;-71
2021/12/29 07:51:09;;;;;;;;;;;6.40;99.90;;;;;;5042625;28;20021;-71
2021/12/29 07:53:37;;;;;;;12.35;6.90;;;6.40;99.90;;;;;;5040886;28;19987;-70
2021/12/29 07:56:04;;;;;;;17.38;7.57;;;6.40;99.90;;;;;;5041568;28;20028;-71
2021/12/29 07:58:30;;;;;;;12.23;6.50;;;6.40;99.90;;;;;;5041003;28;20036;-70
2021/12/29 08:00:56;;;;;;;14.40;7.13;;;6.40;99.90;;;;;;5041076;28;20026;-71
2021/12/29 08:03:22;;;;;;;14.38;8.63;;;6.40;99.90;;;;;;5041321;28;20025;-70
2021/12/29 08:05:47;;;;;;;;;;;6.40;99.90;;;;;;5041676;28;20029;-70
2021/12/29 08:08:13;;;;;;;14.40;8.93;;;6.40;99.90;;;;;;5042294;28;19934;-70
2021/12/29 08:10:39;;;;;;;10.98;6.63;;;6.40;99.90;;;;;;5041711;28;20021;-71
2021/12/29 08:13:06;;;;;;;13.77;8.05;;;6.40;99.90;;;;;;5042193;28;20407;-71
2021/12/29 08:15:32;;;;;;;9.82;5.97;;;6.40;99.90;;;;;;5041796;28;20509;-70
2021/12/29 08:17:59;;;;;;;11.27;6.20;;;6.40;99.90;;;;;;5041813;28;20116;-71
2021/12/29 08:20:25;;;;;;;13.95;6.72;;;6.50;99.90;;;;;;5041474;28;20029;-71
2021/12/29 08:22:52;;;;;;;11.45;7.13;;;6.50;99.90;;;;;;5041802;28;20108;-71
2021/12/29 08:25:17;;;;;;;17.45;8.30;;;6.50;99.90;;;;;;5041609;28;20055;-71
2021/12/29 08:27:43;;;;;;;11.25;6.28;;;6.50;99.90;;;;;;5041460;28;20024;-70
2021/12/29 08:30:09;;;;;;;12.45;7.30;;;6.50;99.90;;;;;;5041282;28;20544;-70
2021/12/29 08:32:35;;;;;;;;;;;6.50;99.90;;;;;;5041604;28;20048;-71
2021/12/29 08:35:01;;;;;;;11.30;6.38;;;6.50;99.90;;;;;;5041636;28;19974;-70
2021/12/29 08:37:26;;;;;;;;;;;6.50;99.90;;;;;;5041356;28;20115;-70
2021/12/29 08:39:52;;;;;;;9.65;6.25;;;6.50;99.90;;;;;;5040845;28;19940;-71
2021/12/29 08:42:17;;;;;;;;;;;6.50;99.90;;;;;;5041609;28;20033;-70
2021/12/29 08:44:43;;;;;;;12.50;6.53;;;6.50;99.90;;;;;;5040629;28;19909;-70
2021/12/29 08:47:09;;;;;;;13.40;7.25;;;6.60;99.90;;;;;;5041449;28;20022;-71
2021/12/29 08:49:34;;;;;;;;;;;6.60;99.90;;;;;;5040590;28;20387;-71
2021/12/29 08:52:00;;;;;;;12.35;6.93;;;6.60;99.90;;;;;;5040467;28;19905;-71
2021/12/29 08:54:26;;;;;;;12.07;7.53;;;6.60;99.90;;;;;;5039736;28;20036;-71
2021/12/29 08:56:53;;;;;;;12.15;6.30;;;6.60;99.90;;;;;;5040654;28;20036;-71
2021/12/29 08:59:19;;;;;;;14.32;6.47;;;6.60;99.90;;;;;;5040245;28;20029;-71
2021/12/29 09:01:44;;;;;;;13.02;7.57;;;6.70;99.90;;;;;;5040402;28;20372;-71
2021/12/29 09:04:10;;;;;;;11.07;6.18;;;6.70;99.90;;;;;;5040688;28;20508;-71
2021/12/29 09:06:35;;;;;;;11.77;5.85;;;6.70;99.90;;;;;;5039624;28;20120;-70
2021/12/29 09:09:01;;;;;;;;;;;6.70;99.90;;;;;;5042077;28;20029;-71
2021/12/29 09:11:30;;;;;;;10.70;5.70;;;6.70;99.90;;;;;;5040587;28;19912;-71
2021/12/29 09:13:56;;;;;;;14.88;6.65;;;6.70;99.90;;;;;;5041127;28;20100;-71
2021/12/29 09:16:22;;;;;;;;;;;6.80;99.90;;;;;;5040949;28;20029;-71
2021/12/29 09:18:47;;;;;;;8.30;4.65;;;6.80;99.90;;;;;;5041061;28;19905;-71
2021/12/29 09:21:15;;;;;;;;;;;6.80;99.90;;;;;;5041107;28;20029;-71
2021/12/29 09:23:42;;;;;;;11.02;5.60;;;6.90;99.90;;;;;;5040362;28;19905;-71
2021/12/29 09:26:14;;;;;;;9.10;5.32;;;6.90;99.90;;;;;;5040801;28;20024;-71
2021/12/29 09:28:41;;;;;;;10.52;5.15;;;6.90;99.90;;;;;;5040083;28;20021;-71
2021/12/29 09:31:07;;;;;;;11.30;5.93;;;6.90;99.90;;;;;;5040209;28;20067;-71
2021/12/29 09:33:33;;;;;;;9.50;5.57;;;6.90;99.90;;;;;;5039885;28;20048;-71
2021/12/29 09:36:02;;;;;;;;;;;6.90;99.90;;;;;;5040515;28;20478;-71
2021/12/29 09:38:31;;;;;;;10.88;5.65;;;6.90;99.90;;;;;;5039829;28;19904;-71
2021/12/29 09:40:57;;;;;;;10.82;5.47;;;7.00;99.90;;;;;;5038707;28;20541;-71
2021/12/29 09:43:22;;;;;;;9.45;5.68;;;7.00;99.90;;;;;;5039147;28;20124;-71
2021/12/29 09:45:49;;;;;;;7.13;4.00;;;7.00;99.90;;;;;;5040273;28;20465;-70
2021/12/29 09:48:15;;;;;;;8.02;4.97;;;7.00;99.90;;;;;;5040117;28;20384;-71
2021/12/29 09:50:40;;;;;;;;;;;7.00;99.90;;;;;;5039511;28;20025;-71
2021/12/29 09:53:08;;;;;;;5.50;3.60;;;7.00;99.90;;;;;;5039618;28;19912;-71
2021/12/29 09:55:35;;;;;;;7.07;3.92;;;7.00;99.90;;;;;;5038895;28;20071;-71
2021/12/29 09:58:03;;;;;;;6.65;4.20;;;7.10;99.90;;;;;;4998512;28;20065;-71
2021/12/29 10:00:50;;;;;;;5.15;3.63;;;7.10;99.90;;;;;;5029657;28;20239;-71
2021/12/29 10:03:18;;;;;;;7.85;3.78;;;7.10;99.90;;;;;;5038642;28;20478;-71
2021/12/29 10:05:49;;;;;;;8.00;4.30;;;7.20;99.90;;;;;;5038548;28;20025;-71
2021/12/29 10:08:23;;;;;;;5.57;3.85;;;7.20;99.90;;;;;;5039983;28;20080;-71
2021/12/29 10:10:52;;;;;;;6.80;4.03;;;7.20;99.90;;;;;;5040347;28;20542;-71
2021/12/29 10:13:18;;;;;;;6.97;3.55;;;7.30;99.90;;;;;;5039487;28;20095;-71
2021/12/29 10:15:45;;;;;;;;;;;7.30;99.90;;;;;;5040188;28;20033;-71
2021/12/29 10:18:21;;;;;;;12.07;7.93;;;7.30;99.90;;;;;;5039750;28;19905;-71
2021/12/29 10:20:49;;;;;;;;;;;7.40;99.90;;;;;;5040219;28;20033;-71
2021/12/29 10:23:20;;;;;;;7.13;4.25;;;7.40;99.90;;;;;;5039600;28;19985;-71
2021/12/29 10:25:45;;;;;;;5.68;3.28;;;7.40;99.90;;;;;;5039384;28;20017;-71
2021/12/29 10:28:18;;;;;;;;;;;7.50;99.90;;;;;;5022259;28;20025;-71
2021/12/29 10:30:44;;;;;;;7.13;4.97;;;7.40;99.90;;;;;;5039639;28;20420;-71
2021/12/29 10:33:11;;;;;;;;;;;7.40;99.90;;;;;;5039506;28;20037;-71
2021/12/29 10:35:37;;;;;;;5.13;3.72;;;7.40;99.90;;;;;;5038439;28;19984;-70
2021/12/29 10:38:16;;;;;;;;;;;7.40;99.90;;;;;;5054789;22;20136;-74
2021/12/29 10:40:42;;;;;;;5.13;3.65;;;7.50;99.90;;;;;;5039384;28;19932;-73
2021/12/29 10:43:08;;;;;;;;;;;7.50;99.90;;;;;;5040138;28;20504;-74
2021/12/29 10:45:39;;;;;;;6.57;4.63;;;7.50;99.90;;;;;;5039677;28;19904;-74
2021/12/29 10:48:20;;;;;;;9.23;5.80;;;7.50;99.90;;;;;;5039633;28;20436;-74
2021/12/29 10:50:56;;;;;;;7.68;5.10;;;7.60;99.90;;;;;;5039676;28;20444;-74
2021/12/29 10:53:22;;;;;;;9.65;6.30;;;7.60;99.90;;;;;;5039187;28;20485;-74
2021/12/29 10:55:48;;;;;;;;;;;7.60;99.90;;;;;;5039983;28;20033;-74
2021/12/29 10:58:21;;;;;;;8.32;4.78;;;7.60;99.90;;;;;;5038578;28;20281;-74
2021/12/29 11:00:49;;;;;;;8.70;6.05;;;7.60;99.90;;;;;;5039375;28;20048;-74
2021/12/29 11:03:20;;;;;;;8.40;5.70;;;7.70;99.90;;;;;;5038692;28;20027;-73
2021/12/29 11:05:50;;;;;;;10.65;5.57;;;7.70;99.90;;;;;;5038992;28;20362;-74
2021/12/29 11:08:16;;;;;;;8.15;5.10;;;7.70;99.90;;;;;;5038983;28;20075;-74
2021/12/29 11:10:43;;;;;;;;;;;7.70;99.90;;;;;;5040023;28;20544;-73
2021/12/29 11:13:09;;;;;;;6.35;5.22;;;7.80;99.90;;;;;;5039448;28;19908;-73
2021/12/29 11:15:41;;;;;;;8.52;5.25;;;7.80;99.90;;;;;;5043339;28;20021;-74
2021/12/29 11:18:12;;;;;;;10.68;6.10;;;7.80;99.90;;;;;;5043004;28;20021;-74
2021/12/29 11:20:39;;;;;;;10.20;6.07;;;7.80;99.90;;;;;;5043170;28;20111;-74
2021/12/29 11:23:12;;;;;;;8.80;5.55;;;7.80;99.90;;;;;;5042973;28;20017;-73
2021/12/29 11:25:39;;;;;;;10.35;4.95;;;7.80;99.90;;;;;;5042872;28;20116;-73
2021/12/29 11:28:06;;;;;;;7.78;5.13;;;7.80;99.90;;;;;;5025335;28;20049;-73
2021/12/29 11:30:32;;;;;;;7.53;4.53;;;7.90;99.90;;;;;;5043155;28;20040;-73
2021/12/29 11:33:05;;;;;;;;;;;7.90;99.90;;;;;;5042899;28;20029;-73
2021/12/29 11:35:36;;;;;;;6.07;4.30;;;7.90;99.90;;;;;;5042852;28;20433;-73
2021/12/29 11:38:02;;;;;;;9.95;5.07;;;7.90;99.90;;;;;;5042798;28;20040;-73
2021/12/29 11:40:29;;;;;;;;;;;7.90;99.90;;;;;;5043105;28;20025;-73
2021/12/29 11:42:55;;;;;;;8.68;5.05;;;7.90;99.90;;;;;;5042682;28;19936;-73
2021/12/29 11:45:21;;;;;;;;;;;7.90;99.90;;;;;;5043236;28;20570;-73
2021/12/29 11:47:47;;;;;;;7.60;4.82;;;7.90;99.90;;;;;;5042599;28;19944;-73
2021/12/29 11:50:19;;;;;;;7.60;4.43;;;7.90;99.90;;;;;;5041893;28;20065;-74
2021/12/29 11:52:59;;;;;;;6.57;3.67;;;7.90;99.90;;;;;;5042464;28;20029;-73
2021/12/29 11:55:30;;;;;;;8.45;5.35;;;7.90;99.90;;;;;;5042610;28;20021;-73
2021/12/29 11:58:06;;;;;;;6.40;4.18;;;8.00;99.90;;;;;;5042276;28;20013;-73
2021/12/29 12:00:31;;;;;;;6.95;4.07;;;7.90;99.90;;;;;;5042399;28;20533;-73
2021/12/29 12:03:05;;;;;;;;;;;7.90;99.90;;;;;;5042811;28;20116;-73
2021/12/29 12:05:36;;;;;;;6.78;4.60;;;7.90;99.90;;;;;;5042372;28;19905;-73
2021/12/29 12:08:22;;;;;;;8.10;4.82;;;7.90;99.90;;;;;;5041482;28;20462;-73
2021/12/29 12:10:47;;;;;;;8.00;4.88;;;7.90;99.90;;;;;;5042468;28;20112;-73
2021/12/29 12:13:27;;;;;;;;;;;7.90;99.90;;;;;;5042650;28;20108;-73
2021/12/29 12:16:22;;;;;;;7.43;3.75;;;7.90;99.90;;;;;;5041789;28;20017;-73
2021/12/29 12:18:58;;;;;;;8.55;5.03;;;7.90;99.90;;;;;;5042200;28;20022;-73
2021/12/29 12:21:33;;;;;;;7.88;5.05;;;7.90;99.90;;;;;;5041519;28;20087;-73
2021/12/29 12:24:21;;;;;;;9.20;5.07;;;7.90;99.90;;;;;;5041643;28;20121;-73
2021/12/29 12:26:57;;;;;;;9.00;5.22;;;7.90;99.90;;;;;;5041045;28;20037;-73
2021/12/29 12:29:24;;;;;;;8.15;5.97;;;7.90;99.90;;;;;;5041908;28;20123;-72
2021/12/29 12:32:00;;;;;;;6.78;5.30;;;8.00;99.90;;;;;;5041625;28;20036;-73
2021/12/29 12:34:26;;;;;;;8.65;4.53;;;7.90;99.90;;;;;;5041640;28;20045;-73
2021/12/29 12:36:51;;;;;;;;;;;7.90;99.90;;;;;;5041691;28;20039;-74
2021/12/29 12:39:19;;;;;;;7.05;3.40;;;7.90;99.90;;;;;;5041891;28;19905;-74
2021/12/29 12:41:48;;;;;;;7.88;3.95;;;7.90;99.90;;;;;;5041227;28;20032;-74
2021/12/29 12:44:15;;;;;;;7.43;4.00;;;7.90;99.90;;;;;;5041835;28;20030;-73
2021/12/29 12:46:49;;;;;;;6.40;3.70;;;7.90;99.90;;;;;;5041441;28;20462;-74
2021/12/29 12:49:22;;;;;;;4.90;3.55;;;7.90;99.90;;;;;;5041301;28;20056;-73
2021/12/29 12:51:57;;;;;;;3.90;2.95;;;7.90;99.90;;;;;;5041130;28;20036;-73
2021/12/29 12:54:27;;;;;;;4.87;3.37;;;7.90;99.90;;;;;;5041060;28;20035;-73
2021/12/29 12:56:54;;;;;;;5.10;3.42;;;7.90;99.90;;;;;;5023619;28;20013;-73
2021/12/29 12:59:19;;;;;;;5.30;2.90;;;7.90;99.90;;;;;;5041455;28;20037;-73
2021/12/29 13:01:47;;;;;;;;;;;7.90;99.90;;;;;;5041821;28;20247;-73
2021/12/29 13:04:16;;;;;;;4.43;2.72;;;8.00;99.90;;;;;;5041621;28;19940;-73
2021/12/29 13:06:44;;;;;;;3.40;2.35;;;8.00;99.90;;;;;;5041020;28;20018;-73
2021/12/29 13:09:10;;;;;;;2.78;1.92;;;8.00;99.90;;;;;;5040797;28;20026;-73
2021/12/29 13:11:39;;;;;;;5.30;3.40;;;8.00;99.90;;;;;;5040775;28;20413;-73
2021/12/29 13:14:06;;;;;;;6.72;3.20;;;8.00;99.90;;;;;;5040938;28;20024;-73